This is the latest recevied weather packets stored in our database for station/object KBPK. If no packets are shown the sender has not sent any weather packets the latest 10 day(s).
| Time | Temp. | Humidity | Pressure | Rain* | Wind** | Luminosity | Snow |
|---|---|---|---|---|---|---|---|
| 1787429603 | 22.78° C | 88% | 1016.9 hPa | - | - | - | - |
| 1787429007 | 22.78° C | 88% | 1016.9 hPa | - | - | - | - |
| 1787428406 | 22.78° C | 78% | 1016.6 hPa | - | - | - | - |
| 1787427805 | 21.67° C | 83% | 1018.3 hPa | - | - | - | - |
| 1787427207 | 21.67° C | 88% | 1020 hPa | - | - | - | - |
| 1787426621 | 35° C | 39% | 1016.6 hPa | - | - | - | - |
| 1787426008 | 35.56° C | 37% | 1015.6 hPa | - | - | - | - |
| 1787425413 | 35.56° C | 37% | 1015.6 hPa | - | - | - | - |
| 1787424812 | 35.56° C | 39% | 1016.9 hPa | - | - | - | - |
| 1787424211 | 35.56° C | 39% | 1016.9 hPa | - | - | - | - |
| 1787423609 | 35.56° C | 39% | 1016.9 hPa | - | - | - | - |
| 1787423012 | 35.56° C | 39% | 1016.9 hPa | - | - | - | - |
| 1787422412 | 35.56° C | 39% | 1016.9 hPa | - | - | - | - |
| 1787421809 | 35.56° C | 39% | 1016.9 hPa | - | - | - | - |
| 1787421213 | 33.89° C | 44% | 1017.3 hPa | - | - | - | - |
| 1787420608 | 33.89° C | 44% | 1017.3 hPa | - | - | - | - |
| 1787420009 | 33.89° C | 44% | 1017.3 hPa | - | - | - | - |
| 1787419410 | 33.89° C | 44% | 1017.3 hPa | - | - | - | - |
| 1787418807 | 33.89° C | 44% | 1017.3 hPa | - | - | - | - |
| 1787418209 | 33.89° C | 44% | 1017.3 hPa | - | - | - | - |
| 1787417611 | 31.67° C | 52% | 1017.6 hPa | - | - | - | - |
| 1787417005 | 31.67° C | 52% | 1017.6 hPa | - | - | - | - |
| 1787416409 | 31.67° C | 52% | 1017.6 hPa | - | - | - | - |
| 1787415807 | 31.67° C | 52% | 1017.6 hPa | - | - | - | - |
| 1787415210 | 31.67° C | 52% | 1017.6 hPa | - | - | - | - |
* Rain since midnight (hover to see other rain measurements)
** Current wind speed in m/s (hover to see current wind gust speed)